Time;durP1;ratioP1;P1;durP2;ratioP2;P2;SDS_P1;SDS_P2;PMS_P1;PMS_P2;Temp;Humidity;BMP_temperature;BMP_pressure;BME280_temperature;BME280_humidity;BME280_pressure;Samples;Min_cycle;Max_cycle;Signal;HPM_P1;HPM_P2
2022/08/26 00:01:21;;;;;;;;;;;20.90;99.90;;;;;;5140954;27;19928;-82
2022/08/26 00:03:47;;;;;;;;;;;20.90;99.90;;;;;;5135587;27;19946;-78
2022/08/26 00:06:13;;;;;;;;;;;20.80;99.90;;;;;;5119930;27;19926;-80
2022/08/26 00:08:39;;;;;;;;;;;20.80;99.90;;;;;;5106750;27;20270;-80
2022/08/26 00:11:05;;;;;;;;;;;20.80;99.90;;;;;;5146422;27;19942;-78
2022/08/26 00:13:30;;;;;;;;;;;20.70;99.90;;;;;;5157019;27;19941;-81
2022/08/26 00:15:56;;;;;;;;;;;20.80;99.90;;;;;;5132191;27;19919;-79
2022/08/26 00:18:22;;;;;;;;;;;20.70;99.90;;;;;;5133650;27;19919;-81
2022/08/26 00:20:48;;;;;;;;;;;20.70;99.90;;;;;;5103285;27;19937;-80
2022/08/26 00:23:13;;;;;;;;;;;20.70;99.90;;;;;;5125263;27;19923;-80
2022/08/26 00:25:39;;;;;;;;;;;20.70;99.90;;;;;;5119162;27;19975;-82
2022/08/26 00:28:05;;;;;;;;;;;20.80;99.90;;;;;;5120897;27;19919;-81
2022/08/26 00:30:33;;;;;;;;;;;20.70;99.90;;;;;;5134728;27;19919;-78
2022/08/26 00:32:59;;;;;;;;;;;20.80;99.90;;;;;;5141286;27;20381;-80
2022/08/26 00:35:25;;;;;;;;;;;20.80;99.90;;;;;;5147813;27;19919;-78
2022/08/26 00:37:51;;;;;;;;;;;20.80;99.90;;;;;;5155402;27;19919;-77
2022/08/26 00:40:18;;;;;;;;;;;20.80;99.90;;;;;;5151896;27;20358;-77
2022/08/26 00:42:44;;;;;;;;;;;20.70;99.90;;;;;;5153687;27;19923;-77
2022/08/26 00:45:10;;;;;;;;;;;20.80;99.90;;;;;;5115284;27;20391;-77
2022/08/26 00:47:39;;;;;;;;;;;20.80;99.90;;;;;;5137614;27;19919;-77
2022/08/26 00:50:06;;;;;;;;;;;20.80;99.90;;;;;;5123509;27;20258;-79
2022/08/26 00:52:32;;;;;;;;;;;20.80;99.90;;;;;;5152840;27;19919;-76
2022/08/26 00:55:01;;;;;;;;;;;20.80;99.90;;;;;;5155141;27;19929;-76
2022/08/26 00:57:27;;;;;;;;;;;20.80;99.90;;;;;;5152396;27;19919;-76
2022/08/26 00:59:56;;;;;;;;;;;20.80;99.90;;;;;;5123872;27;19919;-76
2022/08/26 01:02:21;;;;;;;;;;;20.70;99.90;;;;;;5145966;27;20277;-78
2022/08/26 01:04:52;;;;;;;;;;;20.70;99.90;;;;;;5139160;27;20070;-77
2022/08/26 01:07:18;;;;;;;;;;;20.70;99.90;;;;;;5155350;27;20242;-76
2022/08/26 01:09:44;;;;;;;;;;;20.70;99.90;;;;;;5139564;27;19919;-79
2022/08/26 01:12:10;;;;;;;;;;;20.60;99.90;;;;;;5151129;27;19918;-76
2022/08/26 01:14:36;;;;;;;;;;;20.60;99.90;;;;;;5131236;27;19925;-76
2022/08/26 01:17:03;;;;;;;;;;;20.50;99.90;;;;;;5124230;27;19919;-76
2022/08/26 01:19:31;;;;;;;;;;;20.50;99.90;;;;;;5148649;27;19919;-77
2022/08/26 01:21:59;;;;;;;;;;;20.50;99.90;;;;;;5157050;27;20346;-76
2022/08/26 01:24:27;;;;;;;;;;;20.50;99.90;;;;;;5129191;27;19919;-77
2022/08/26 01:26:55;;;;;;;;;;;20.50;99.90;;;;;;5141558;27;20012;-75
2022/08/26 01:29:21;;;;;;;;;;;20.40;99.90;;;;;;5138996;27;19919;-77
2022/08/26 01:31:50;;;;;;;;;;;20.40;99.90;;;;;;5122376;27;19966;-77
2022/08/26 01:34:18;;;;;;;;;;;20.40;99.90;;;;;;5127596;27;19922;-77
2022/08/26 01:36:44;;;;;;;;;;;20.30;99.90;;;;;;5124463;27;19974;-77
2022/08/26 01:39:09;;;;;;;;;;;20.40;99.90;;;;;;5129635;27;19919;-77
2022/08/26 01:41:36;;;;;;;;;;;20.30;99.90;;;;;;5140310;27;19919;-77
2022/08/26 01:44:03;;;;;;;;;;;20.20;99.90;;;;;;5126621;27;19922;-76
2022/08/26 01:46:29;;;;;;;;;;;20.20;99.90;;;;;;5122985;27;20331;-78
2022/08/26 01:48:57;;;;;;;;;;;20.20;99.90;;;;;;5128978;27;19919;-77
2022/08/26 01:51:23;;;;;;;;;;;20.20;99.90;;;;;;5139499;27;19969;-78
2022/08/26 01:53:49;;;;;;;;;;;20.20;99.90;;;;;;5151770;27;20026;-78
2022/08/26 01:56:15;;;;;;;;;;;20.20;99.90;;;;;;5127338;27;20374;-77
2022/08/26 01:58:43;;;;;;;;;;;20.20;99.90;;;;;;5156682;27;20346;-78
2022/08/26 02:01:09;;;;;;;;;;;20.20;99.90;;;;;;5122227;27;19926;-75
2022/08/26 02:03:35;;;;;;;;;;;20.20;99.90;;;;;;5139141;27;19919;-75
2022/08/26 02:06:04;;;;;;;;;;;20.30;99.90;;;;;;5160184;27;20274;-75
2022/08/26 02:08:35;;;;;;;;;;;20.20;99.90;;;;;;5142747;27;19919;-77
2022/08/26 02:11:01;;;;;;;;;;;20.20;99.90;;;;;;5146701;27;20311;-75
2022/08/26 02:13:30;;;;;;;;;;;20.20;99.90;;;;;;5138050;27;20026;-75
2022/08/26 02:15:56;;;;;;;;;;;20.20;99.90;;;;;;5132135;27;19925;-75
2022/08/26 02:18:22;;;;;;;;;;;20.20;99.90;;;;;;5129943;27;20359;-76
2022/08/26 02:20:48;;;;;;;;;;;20.20;99.90;;;;;;5143265;27;19990;-75
2022/08/26 02:23:13;;;;;;;;;;;20.20;99.90;;;;;;5123740;27;19926;-77
2022/08/26 02:25:46;;;;;;;;;;;20.20;99.90;;;;;;5136904;27;19966;-76
2022/08/26 02:28:13;;;;;;;;;;;20.20;99.90;;;;;;5130740;27;20001;-76
2022/08/26 02:30:39;;;;;;;;;;;20.20;99.90;;;;;;5141684;27;19926;-77
2022/08/26 02:33:05;;;;;;;;;;;20.20;99.90;;;;;;5141841;27;19925;-77
2022/08/26 02:35:32;;;;;;;;;;;20.20;99.90;;;;;;5136430;27;19966;-78
2022/08/26 02:37:57;;;;;;;;;;;20.20;99.90;;;;;;5159051;27;19945;-78
2022/08/26 02:40:25;;;;;;;;;;;20.20;99.90;;;;;;5158481;27;20342;-77
2022/08/26 02:42:51;;;;;;;;;;;20.20;99.90;;;;;;5150488;27;19919;-77
2022/08/26 02:45:17;;;;;;;;;;;20.20;99.90;;;;;;5121281;27;19923;-76
2022/08/26 02:47:43;;;;;;;;;;;20.10;99.90;;;;;;5168968;27;19919;-76
2022/08/26 02:50:09;;;;;;;;;;;20.10;99.90;;;;;;5152103;27;19926;-77
2022/08/26 02:52:35;;;;;;;;;;;20.20;99.90;;;;;;5126994;27;19919;-78
2022/08/26 02:55:00;;;;;;;;;;;20.20;99.90;;;;;;5138342;27;19950;-74
2022/08/26 02:57:26;;;;;;;;;;;20.20;99.90;;;;;;5132870;27;19919;-76
2022/08/26 02:59:52;;;;;;;;;;;20.20;99.90;;;;;;5111380;27;19962;-76
2022/08/26 03:02:17;;;;;;;;;;;20.20;99.90;;;;;;5120925;27;20261;-77
2022/08/26 03:04:43;;;;;;;;;;;20.10;99.90;;;;;;5149257;27;19949;-77
2022/08/26 03:07:08;;;;;;;;;;;20.20;99.90;;;;;;5143886;27;20013;-76
2022/08/26 03:09:34;;;;;;;;;;;20.10;99.90;;;;;;5152024;27;19919;-78
2022/08/26 03:11:59;;;;;;;;;;;20.20;99.90;;;;;;5124367;27;19948;-77
2022/08/26 03:14:25;;;;;;;;;;;20.20;99.90;;;;;;5130723;27;19926;-77
2022/08/26 03:16:53;;;;;;;;;;;20.10;99.90;;;;;;5140951;27;19919;-77
2022/08/26 03:19:19;;;;;;;;;;;20.10;99.90;;;;;;5126996;27;19923;-78
2022/08/26 03:21:45;;;;;;;;;;;20.20;99.90;;;;;;5131792;27;19918;-78
2022/08/26 03:24:11;;;;;;;;;;;20.10;99.90;;;;;;5111723;27;19919;-77
2022/08/26 03:26:37;;;;;;;;;;;20.10;99.90;;;;;;5120565;27;19919;-77
2022/08/26 03:31:47;;;;;;;;;;;20.10;99.90;;;;;;5135984;27;19926;-76
2022/08/26 03:34:13;;;;;;;;;;;20.10;99.90;;;;;;5139263;27;19919;-76
2022/08/26 03:36:38;;;;;;;;;;;20.10;99.90;;;;;;5161862;27;19919;-81
2022/08/26 03:39:04;;;;;;;;;;;20.10;99.90;;;;;;5121342;27;19926;-76
2022/08/26 03:41:31;;;;;;;;;;;20.10;99.90;;;;;;5137094;27;20415;-77
2022/08/26 03:43:57;;;;;;;;;;;20.00;99.90;;;;;;5148714;27;19918;-77
2022/08/26 03:46:22;;;;;;;;;;;20.10;99.90;;;;;;5149841;27;19926;-77
2022/08/26 03:48:48;;;;;;;;;;;20.00;99.90;;;;;;5108562;27;19926;-77
2022/08/26 03:51:15;;;;;;;;;;;20.10;99.90;;;;;;5138408;27;19923;-76
2022/08/26 03:53:40;;;;;;;;;;;20.10;99.90;;;;;;5122633;27;19983;-83
2022/08/26 03:56:06;;;;;;;;;;;20.00;99.90;;;;;;5126371;27;19927;-77
2022/08/26 03:58:32;;;;;;;;;;;20.10;99.90;;;;;;5132545;27;19930;-77
2022/08/26 04:00:58;;;;;;;;;;;20.00;99.90;;;;;;5119835;27;19963;-77
2022/08/26 04:06:08;;;;;;;;;;;20.00;99.90;;;;;;5139246;27;19926;-76
2022/08/26 04:08:34;;;;;;;;;;;19.90;99.90;;;;;;5131228;27;19919;-76
2022/08/26 04:11:00;;;;;;;;;;;19.90;99.90;;;;;;5137742;27;20334;-77
2022/08/26 04:13:26;;;;;;;;;;;19.90;99.90;;;;;;5122152;27;19919;-77
2022/08/26 04:15:51;;;;;;;;;;;19.90;99.90;;;;;;5140427;27;19919;-77
2022/08/26 04:18:17;;;;;;;;;;;19.90;99.90;;;;;;5110767;27;19930;-77
2022/08/26 04:20:43;;;;;;;;;;;19.90;99.90;;;;;;5125403;27;19919;-77
2022/08/26 04:23:08;;;;;;;;;;;19.90;99.90;;;;;;5122994;27;19919;-77
2022/08/26 04:25:34;;;;;;;;;;;20.00;99.90;;;;;;5145273;27;19923;-77
2022/08/26 04:27:59;;;;;;;;;;;20.00;99.90;;;;;;5148792;27;20365;-78
2022/08/26 04:30:25;;;;;;;;;;;20.00;99.90;;;;;;5120903;27;19963;-78
2022/08/26 04:32:50;;;;;;;;;;;20.00;99.90;;;;;;5127147;27;19963;-76
2022/08/26 04:35:16;;;;;;;;;;;20.00;99.90;;;;;;5132707;27;20392;-77
2022/08/26 04:37:42;;;;;;;;;;;20.00;99.90;;;;;;5146924;27;19918;-77
2022/08/26 04:40:08;;;;;;;;;;;20.00;99.90;;;;;;5145437;27;19919;-77
2022/08/26 04:42:34;;;;;;;;;;;20.00;99.90;;;;;;5150756;27;20310;-77
2022/08/26 04:45:00;;;;;;;;;;;20.00;99.90;;;;;;5137775;27;19976;-77
2022/08/26 04:47:26;;;;;;;;;;;20.00;99.90;;;;;;5127112;27;19919;-78
2022/08/26 04:49:55;;;;;;;;;;;20.00;99.90;;;;;;5138841;27;19941;-77
2022/08/26 04:52:20;;;;;;;;;;;19.90;99.90;;;;;;5129378;27;19969;-76
2022/08/26 04:54:46;;;;;;;;;;;19.90;99.90;;;;;;5133074;27;19955;-75
2022/08/26 04:57:11;;;;;;;;;;;19.90;99.90;;;;;;5123332;27;19923;-74
2022/08/26 04:59:37;;;;;;;;;;;19.80;99.90;;;;;;5145889;27;19930;-74
2022/08/26 05:02:03;;;;;;;;;;;19.80;99.90;;;;;;5141472;27;19966;-74
2022/08/26 05:04:29;;;;;;;;;;;19.70;99.90;;;;;;5123747;27;19961;-75
2022/08/26 05:06:54;;;;;;;;;;;19.60;99.90;;;;;;5148254;27;19919;-74
2022/08/26 05:09:20;;;;;;;;;;;19.60;99.90;;;;;;5135749;27;20496;-74
2022/08/26 05:11:46;;;;;;;;;;;19.50;99.90;;;;;;5141518;27;19971;-74
2022/08/26 05:14:12;;;;;;;;;;;19.50;99.90;;;;;;5124821;27;19923;-74
2022/08/26 05:16:37;;;;;;;;;;;19.50;99.90;;;;;;5147399;27;19923;-74
2022/08/26 05:19:04;;;;;;;;;;;19.50;99.90;;;;;;5114626;27;19998;-74
2022/08/26 05:21:29;;;;;;;;;;;19.50;99.90;;;;;;5150539;27;19957;-74
2022/08/26 05:23:55;;;;;;;;;;;19.40;99.90;;;;;;5140260;27;19958;-74
2022/08/26 05:26:22;;;;;;;;;;;19.50;99.90;;;;;;5158266;27;19961;-75
2022/08/26 05:28:48;;;;;;;;;;;19.50;99.90;;;;;;5142692;27;20013;-74
2022/08/26 05:31:18;;;;;;;;;;;19.50;99.90;;;;;;5115916;27;20011;-74
2022/08/26 05:33:44;;;;;;;;;;;19.50;99.90;;;;;;5137001;27;20361;-74
2022/08/26 05:36:12;;;;;;;;;;;19.50;99.90;;;;;;5128160;27;19948;-74
2022/08/26 05:38:38;;;;;;;;;;;19.50;99.90;;;;;;5155766;27;19922;-74
2022/08/26 05:41:03;;;;;;;;;;;19.50;99.90;;;;;;5125937;27;20033;-75
2022/08/26 05:43:29;;;;;;;;;;;19.50;99.90;;;;;;5125380;27;19941;-75
2022/08/26 05:45:56;;;;;;;;;;;19.50;99.90;;;;;;5143027;27;20235;-75
2022/08/26 05:48:21;;;;;;;;;;;19.60;99.90;;;;;;5142857;27;19918;-76
2022/08/26 05:50:49;;;;;;;;;;;19.50;99.90;;;;;;5110167;27;19979;-75
2022/08/26 05:53:15;;;;;;;;;;;19.50;99.90;;;;;;5146121;27;19974;-74
2022/08/26 05:55:59;;;;;;;;;;;19.50;99.90;;;;;;5151611;27;20329;-73
2022/08/26 05:58:25;;;;;;;;;;;19.50;99.90;;;;;;5153096;27;19918;-74
2022/08/26 06:00:55;;;;;;;;;;;19.50;99.90;;;;;;5157292;27;19925;-73
2022/08/26 06:03:21;;;;;;;;;;;19.60;99.90;;;;;;5128635;27;19962;-82
2022/08/26 06:05:46;;;;;;;;;;;19.50;99.90;;;;;;5139795;27;20498;-76
2022/08/26 06:08:15;;;;;;;;;;;19.50;99.90;;;;;;5149781;27;19926;-74
2022/08/26 06:10:48;;;;;;;;;;;19.60;99.90;;;;;;5140583;27;19926;-77
2022/08/26 06:13:15;;;;;;;;;;;19.50;99.90;;;;;;5148369;27;20413;-75
2022/08/26 06:15:42;;;;;;;;;;;19.60;99.90;;;;;;5124824;27;19923;-76
2022/08/26 06:18:08;;;;;;;;;;;19.70;99.90;;;;;;5128159;27;19923;-76
2022/08/26 06:20:35;;;;;;;;;;;19.60;99.90;;;;;;5119368;27;19919;-76
2022/08/26 06:25:45;;;;;;;;;;;19.70;99.90;;;;;;5143962;27;19919;-76
2022/08/26 06:28:12;;;;;;;;;;;19.60;99.90;;;;;;5135218;27;19919;-75
2022/08/26 06:30:39;;;;;;;;;;;19.60;99.90;;;;;;5140936;27;20009;-76
2022/08/26 06:33:05;;;;;;;;;;;19.60;99.90;;;;;;5156313;27;19926;-75
2022/08/26 06:35:34;;;;;;;;;;;19.60;99.90;;;;;;5146634;27;20262;-83
2022/08/26 06:38:00;;;;;;;;;;;19.60;99.90;;;;;;5138176;27;20342;-81
2022/08/26 06:40:25;;;;;;;;;;;19.60;99.90;;;;;;5121350;27;19926;-78
2022/08/26 06:42:51;;;;;;;;;;;19.60;99.90;;;;;;5141607;27;20366;-74
2022/08/26 06:45:17;;;;;;;;;;;19.60;99.90;;;;;;5142901;27;19923;-74
2022/08/26 06:47:42;;;;;;;;;;;19.60;99.90;;;;;;5122273;27;19919;-74
2022/08/26 06:50:08;;;;;;;;;;;19.60;99.90;;;;;;5146526;27;20273;-75
2022/08/26 06:52:33;;;;;;;;;;;19.60;99.90;;;;;;5158792;27;19923;-75
2022/08/26 06:54:59;;;;;;;;;;;19.60;99.90;;;;;;5141487;27;19923;-73
2022/08/26 06:57:24;;;;;;;;;;;19.60;99.90;;;;;;5131637;27;19919;-74
2022/08/26 06:59:50;;;;;;;;;;;19.70;99.90;;;;;;5152590;27;20373;-73
2022/08/26 07:02:15;;;;;;;;;;;19.70;99.90;;;;;;5141505;27;20303;-74
2022/08/26 07:04:42;;;;;;;;;;;19.70;99.90;;;;;;5158477;27;20014;-74
2022/08/26 07:07:11;;;;;;;;;;;19.70;99.90;;;;;;5120182;27;19919;-75
2022/08/26 07:09:37;;;;;;;;;;;19.80;99.90;;;;;;5121423;27;20278;-75
2022/08/26 07:12:04;;;;;;;;;;;19.80;99.90;;;;;;5121621;27;19927;-77
2022/08/26 07:14:30;;;;;;;;;;;19.80;99.90;;;;;;5143194;27;19918;-74
2022/08/26 07:16:56;;;;;;;;;;;19.90;99.90;;;;;;5141415;27;19942;-74
2022/08/26 07:19:22;;;;;;;;;;;19.90;99.90;;;;;;5112354;27;19945;-76
2022/08/26 07:21:47;;;;;;;;;;;20.00;99.90;;;;;;5141360;27;20364;-74
2022/08/26 07:24:13;;;;;;;;;;;20.00;99.90;;;;;;5120373;27;19928;-75
2022/08/26 07:26:38;;;;;;;;;;;19.90;99.90;;;;;;5134514;27;19927;-74
2022/08/26 07:29:05;;;;;;;;;;;19.90;99.90;;;;;;5137881;27;19919;-75
2022/08/26 07:31:31;;;;;;;;;;;19.90;99.90;;;;;;5155681;27;20270;-74
2022/08/26 07:33:57;;;;;;;;;;;19.90;99.90;;;;;;5126580;27;19923;-73
2022/08/26 07:36:23;;;;;;;;;;;19.80;99.90;;;;;;5137363;27;19979;-75
2022/08/26 07:38:50;;;;;;;;;;;19.70;99.90;;;;;;5120452;27;19977;-73
2022/08/26 07:41:16;;;;;;;;;;;19.60;99.90;;;;;;5132824;27;19919;-73
2022/08/26 07:43:42;;;;;;;;;;;19.60;99.90;;;;;;5148445;27;19967;-73
2022/08/26 07:46:08;;;;;;;;;;;19.60;99.90;;;;;;5137284;27;19923;-74
2022/08/26 07:48:34;;;;;;;;;;;19.50;99.90;;;;;;5137315;27;19919;-74
2022/08/26 07:51:00;;;;;;;;;;;19.50;99.90;;;;;;5138390;27;19923;-73
2022/08/26 07:53:25;;;;;;;;;;;19.50;99.90;;;;;;5142088;27;19926;-82
2022/08/26 07:55:51;;;;;;;;;;;19.50;99.90;;;;;;5117118;27;19926;-80
2022/08/26 07:58:17;;;;;;;;;;;19.40;99.90;;;;;;5139240;27;19919;-76
2022/08/26 08:00:43;;;;;;;;;;;19.40;99.90;;;;;;5137932;27;19919;-89
2022/08/26 08:03:09;;;;;;;;;;;19.40;99.90;;;;;;5154066;27;19930;-85
2022/08/26 08:05:35;;;;;;;;;;;19.30;99.90;;;;;;5132534;27;19919;-84
2022/08/26 08:08:02;;;;;;;;;;;19.20;99.90;;;;;;5136134;27;19926;-80
2022/08/26 08:10:28;;;;;;;;;;;19.10;99.90;;;;;;5155424;27;19919;-85
2022/08/26 08:12:55;;;;;;;;;;;19.10;99.90;;;;;;5157081;27;19918;-85
2022/08/26 08:15:23;;;;;;;;;;;19.00;99.90;;;;;;5157167;27;20334;-83
2022/08/26 08:17:49;;;;;;;;;;;19.10;99.90;;;;;;5139672;27;19948;-82
2022/08/26 08:20:15;;;;;;;;;;;19.10;99.90;;;;;;5127499;27;20009;-82
2022/08/26 08:22:41;;;;;;;;;;;19.10;99.90;;;;;;5147158;27;20307;-78
2022/08/26 08:25:08;;;;;;;;;;;19.10;99.90;;;;;;5141476;27;19931;-78
2022/08/26 08:27:34;;;;;;;;;;;19.10;99.90;;;;;;5114144;27;19922;-80
2022/08/26 08:30:00;;;;;;;;;;;19.10;99.90;;;;;;5155173;27;19923;-85
2022/08/26 08:32:25;;;;;;;;;;;19.10;99.90;;;;;;5131724;27;19926;-85
2022/08/26 08:34:51;;;;;;;;;;;19.10;99.90;;;;;;5140373;27;19926;-79
2022/08/26 08:37:17;;;;;;;;;;;19.10;99.90;;;;;;5102447;27;19923;-89
2022/08/26 08:39:43;;;;;;;;;;;19.20;99.90;;;;;;5137348;27;19926;-86
2022/08/26 08:42:09;;;;;;;;;;;19.20;99.90;;;;;;5125836;27;19930;-76
2022/08/26 08:44:36;;;;;;;;;;;19.20;99.90;;;;;;5142449;27;19923;-78
2022/08/26 08:47:11;;;;;;;;;;;19.30;99.90;;;;;;5157345;27;19982;-75
2022/08/26 08:49:37;;;;;;;;;;;19.30;99.90;;;;;;5137566;27;19923;-78
2022/08/26 08:52:29;;;;;;;;;;;19.30;99.90;;;;;;5137118;27;19919;-78
2022/08/26 08:54:55;;;;;;;;;;;19.40;99.90;;;;;;5138521;27;19925;-75
2022/08/26 08:57:30;;;;;;;;;;;19.40;99.90;;;;;;5134712;27;19919;-75
2022/08/26 09:00:03;;;;;;;;;;;19.40;99.90;;;;;;5155962;27;19919;-75
2022/08/26 09:02:35;;;;;;;;;;;19.40;99.90;;;;;;5149518;27;20257;-77
2022/08/26 09:05:15;;;;;;;;;;;19.30;99.90;;;;;;5123760;27;20002;-76
2022/08/26 09:07:47;;;;;;;;;;;19.30;99.90;;;;;;5149992;27;19919;-76
2022/08/26 09:10:28;;;;;;;;;;;19.30;99.90;;;;;;5140097;27;19919;-77
2022/08/26 09:12:54;;;;;;;;;;;19.20;99.90;;;;;;5130414;27;19930;-78
2022/08/26 09:15:26;;;;;;;;;;;19.20;99.90;;;;;;5143353;27;19919;-77
2022/08/26 09:18:00;;;;;;;;;;;19.30;99.90;;;;;;5152212;27;19987;-78
2022/08/26 09:20:48;;;;;;;;;;;19.20;99.90;;;;;;5141637;27;19990;-75
2022/08/26 09:23:14;;;;;;;;;;;19.30;99.90;;;;;;5157511;27;20376;-73
2022/08/26 09:25:46;;;;;;;;;;;19.40;99.90;;;;;;5123207;27;20002;-74
2022/08/26 09:28:17;;;;;;;;;;;19.50;99.90;;;;;;5148370;27;20319;-76
2022/08/26 09:30:44;;;;;;;;;;;19.50;99.90;;;;;;5130306;27;20005;-75
2022/08/26 09:33:14;;;;;;;;;;;19.50;99.90;;;;;;5161310;27;20306;-75
2022/08/26 09:35:42;;;;;;;;;;;19.60;99.90;;;;;;5149537;27;19926;-75
2022/08/26 09:38:31;;;;;;;;;;;19.60;99.90;;;;;;5139517;27;19930;-76
2022/08/26 09:41:02;;;;;;;;;;;19.60;99.90;;;;;;5150483;27;20200;-78
2022/08/26 09:43:28;;;;;;;;;;;19.60;99.90;;;;;;5138584;27;20271;-74
2022/08/26 09:46:09;;;;;;;;;;;19.70;99.90;;;;;;5136185;27;19967;-74
2022/08/26 09:48:38;;;;;;;;;;;19.80;99.90;;;;;;5123128;27;19934;-79
2022/08/26 09:51:05;;;;;;;;;;;19.90;99.90;;;;;;5141316;27;20331;-77
2022/08/26 09:53:35;;;;;;;;;;;19.90;99.90;;;;;;5137485;27;20030;-83
2022/08/26 09:56:13;;;;;;;;;;;19.90;99.90;;;;;;5145891;27;19919;-86
2022/08/26 09:58:40;;;;;;;;;;;20.00;99.90;;;;;;5124384;27;19919;-81
2022/08/26 10:01:08;;;;;;;;;;;19.90;99.90;;;;;;5143684;27;19926;-82
2022/08/26 10:03:36;;;;;;;;;;;19.90;99.90;;;;;;5148354;27;19919;-80
2022/08/26 10:06:02;;;;;;;;;;;19.90;99.90;;;;;;5133309;27;20396;-81
2022/08/26 10:08:30;;;;;;;;;;;19.90;99.90;;;;;;5142947;27;20053;-82
2022/08/26 10:10:58;;;;;;;;;;;19.90;99.90;;;;;;5136830;27;19919;-78
2022/08/26 10:13:30;;;;;;;;;;;19.80;99.90;;;;;;5128524;27;20052;-78
2022/08/26 10:16:05;;;;;;;;;;;19.80;99.90;;;;;;5151139;27;19926;-77
2022/08/26 10:18:32;;;;;;;;;;;19.80;99.90;;;;;;5129691;27;19926;-79
2022/08/26 10:20:58;;;;;;;;;;;19.80;99.90;;;;;;5119708;27;20063;-75
2022/08/26 10:23:25;;;;;;;;;;;19.80;99.90;;;;;;5116928;27;20002;-79
2022/08/26 10:26:03;;;;;;;;;;;19.80;99.90;;;;;;5151077;27;19923;-78
2022/08/26 10:28:28;;;;;;;;;;;19.90;99.90;;;;;;5117519;27;20025;-79
2022/08/26 10:31:01;;;;;;;;;;;19.90;99.90;;;;;;5145180;27;19970;-76
2022/08/26 10:33:27;;;;;;;;;;;20.00;99.90;;;;;;5145114;27;19919;-75
2022/08/26 10:35:57;;;;;;;;;;;20.10;99.90;;;;;;5100998;27;19942;-73
2022/08/26 10:38:30;;;;;;;;;;;20.10;99.90;;;;;;5133952;27;20063;-74
2022/08/26 10:40:56;;;;;;;;;;;20.10;99.90;;;;;;5148021;27;19919;-74
2022/08/26 10:43:22;;;;;;;;;;;20.20;99.90;;;;;;5120403;27;19927;-74
2022/08/26 10:45:52;;;;;;;;;;;20.20;99.90;;;;;;5145273;27;19922;-73
2022/08/26 10:48:37;;;;;;;;;;;20.20;99.90;;;;;;5149586;27;19923;-74
2022/08/26 10:51:03;;;;;;;;;;;20.20;99.90;;;;;;5141845;27;19919;-74
2022/08/26 10:53:28;;;;;;;;;;;20.20;99.90;;;;;;5138391;27;19919;-75
2022/08/26 10:56:04;;;;;;;;;;;20.30;99.90;;;;;;5152410;27;19973;-74
2022/08/26 10:58:45;;;;;;;;;;;20.30;99.90;;;;;;5151855;27;19920;-73
2022/08/26 11:04:21;;;;;;;;;;;20.50;99.90;;;;;;5131837;27;19976;-74
2022/08/26 11:06:46;;;;;;;;;;;20.50;99.90;;;;;;5124499;27;19954;-73
2022/08/26 11:09:32;;;;;;;;;;;20.40;99.90;;;;;;5139900;27;19961;-75
2022/08/26 11:11:58;;;;;;;;;;;20.40;99.90;;;;;;5136872;27;19923;-75
2022/08/26 11:14:31;;;;;;;;;;;20.50;99.90;;;;;;5151897;27;19919;-74
2022/08/26 11:16:57;;;;;;;;;;;20.50;99.90;;;;;;5145170;27;20284;-74
2022/08/26 11:19:29;;;;;;;;;;;20.60;99.90;;;;;;5124024;27;19919;-74
2022/08/26 11:22:04;;;;;;;;;;;20.60;99.90;;;;;;5126539;27;20404;-73
2022/08/26 11:24:39;;;;;;;;;;;20.60;99.90;;;;;;5129499;27;19923;-78
2022/08/26 11:27:11;;;;;;;;;;;20.50;99.90;;;;;;5127754;27;19931;-75
2022/08/26 11:29:55;;;;;;;;;;;20.50;99.90;;;;;;5135692;27;20374;-78
2022/08/26 11:32:25;;;;;;;;;;;20.50;99.90;;;;;;5115226;27;20335;-78
2022/08/26 11:34:56;;;;;;;;;;;20.60;99.90;;;;;;5147758;27;19923;-78
2022/08/26 11:37:25;;;;;;;;;;;20.50;99.90;;;;;;5136369;27;19926;-78
2022/08/26 11:39:52;;;;;;;;;;;20.60;99.90;;;;;;5118690;27;19957;-77
2022/08/26 11:42:33;;;;;;;;;;;20.60;99.90;;;;;;5149502;27;19922;-77
2022/08/26 11:45:00;;;;;;;;;;;20.60;99.90;;;;;;5127870;27;20006;-80
2022/08/26 11:47:29;;;;;;;;;;;20.70;99.90;;;;;;5136047;27;20002;-76
2022/08/26 11:50:16;;;;;;;;;;;20.70;99.90;;;;;;5137394;27;19925;-78
2022/08/26 11:52:50;;;;;;;;;;;20.70;99.90;;;;;;5131606;27;19919;-78
2022/08/26 11:55:15;;;;;;;;;;;20.80;99.90;;;;;;5135933;27;19968;-77
2022/08/26 11:57:49;;;;;;;;;;;20.90;99.90;;;;;;5120026;27;19923;-77
2022/08/26 12:00:20;;;;;;;;;;;20.90;99.90;;;;;;5143700;27;19919;-77
2022/08/26 12:02:46;;;;;;;;;;;21.00;99.90;;;;;;5113936;27;19931;-76
2022/08/26 12:05:16;;;;;;;;;;;20.90;99.90;;;;;;5146157;27;19926;-77
2022/08/26 12:07:41;;;;;;;;;;;20.90;99.90;;;;;;5127008;27;19919;-76
2022/08/26 12:10:09;;;;;;;;;;;20.80;99.90;;;;;;5128533;27;19945;-75
2022/08/26 12:12:37;;;;;;;;;;;20.90;99.90;;;;;;5134444;27;20006;-78
2022/08/26 12:15:04;;;;;;;;;;;20.80;99.90;;;;;;5122154;27;19924;-79
2022/08/26 12:17:30;;;;;;;;;;;20.80;99.90;;;;;;5144331;27;19950;-77
2022/08/26 12:19:56;;;;;;;;;;;20.80;99.90;;;;;;5138807;27;19919;-77
2022/08/26 12:22:29;;;;;;;;;;;20.70;99.90;;;;;;5137462;27;19923;-76
2022/08/26 12:25:00;;;;;;;;;;;20.70;99.90;;;;;;5133832;27;20034;-80
2022/08/26 12:27:41;;;;;;;;;;;20.70;99.90;;;;;;5116375;27;19927;-80
2022/08/26 12:30:10;;;;;;;;;;;20.70;99.90;;;;;;5135236;27;19919;-76
2022/08/26 12:32:38;;;;;;;;;;;20.60;99.90;;;;;;5133049;27;19920;-79
2022/08/26 12:35:07;;;;;;;;;;;20.50;99.90;;;;;;5125864;27;20346;-77
2022/08/26 12:37:33;;;;;;;;;;;20.40;99.90;;;;;;5130669;27;20266;-78
2022/08/26 12:40:18;;;;;;;;;;;20.30;99.90;;;;;;5118409;27;19926;-78
2022/08/26 12:42:43;;;;;;;;;;;20.20;99.90;;;;;;5121514;27;19919;-78
2022/08/26 12:45:09;;;;;;;;;;;20.10;99.90;;;;;;5124238;27;20251;-78
2022/08/26 12:47:41;;;;;;;;;;;20.10;99.90;;;;;;5134396;27;19923;-76
2022/08/26 12:50:09;;;;;;;;;;;20.10;99.90;;;;;;5151874;27;20001;-77
2022/08/26 12:52:41;;;;;;;;;;;20.00;99.90;;;;;;5131487;27;19919;-77
2022/08/26 12:55:16;;;;;;;;;;;20.10;99.90;;;;;;5124272;27;19923;-77
2022/08/26 12:57:42;;;;;;;;;;;20.00;99.90;;;;;;5130393;27;19919;-77
2022/08/26 13:00:24;;;;;;;;;;;20.10;99.90;;;;;;5126531;27;20302;-77
2022/08/26 13:02:50;;;;;;;;;;;20.20;99.90;;;;;;5122847;27;20017;-77
2022/08/26 13:05:20;;;;;;;;;;;20.10;99.90;;;;;;5137130;27;19918;-79
2022/08/26 13:08:05;;;;;;;;;;;20.10;99.90;;;;;;5121868;27;20008;-79
2022/08/26 13:10:35;;;;;;;;;;;20.00;99.90;;;;;;5152409;27;19918;-78
2022/08/26 13:13:00;;;;;;;;;;;19.90;99.90;;;;;;5125634;27;20320;-78
2022/08/26 13:15:26;;;;;;;;;;;19.80;99.90;;;;;;5121644;27;20006;-78
2022/08/26 13:17:51;;;;;;;;;;;19.90;99.90;;;;;;5113322;27;19919;-77
2022/08/26 13:20:17;;;;;;;;;;;20.00;99.90;;;;;;5128633;27;19923;-78
2022/08/26 13:22:43;;;;;;;;;;;20.00;99.90;;;;;;5146493;27;19971;-79
2022/08/26 13:25:08;;;;;;;;;;;20.00;99.90;;;;;;5117172;27;19919;-77
2022/08/26 13:27:34;;;;;;;;;;;20.00;99.90;;;;;;5125030;27;19919;-78
2022/08/26 13:30:00;;;;;;;;;;;20.00;99.90;;;;;;5133112;27;19923;-77
2022/08/26 13:32:26;;;;;;;;;;;20.10;99.90;;;;;;5123948;27;19923;-78
2022/08/26 13:34:52;;;;;;;;;;;20.30;99.90;;;;;;5144466;27;20027;-78
2022/08/26 13:37:21;;;;;;;;;;;20.20;99.90;;;;;;5123581;27;19931;-78
2022/08/26 13:39:47;;;;;;;;;;;20.20;99.90;;;;;;5134803;27;19926;-76
2022/08/26 13:42:13;;;;;;;;;;;20.00;99.90;;;;;;5132255;27;19919;-76
2022/08/26 13:44:39;;;;;;;;;;;20.00;99.90;;;;;;5138715;27;19926;-77
2022/08/26 13:47:05;;;;;;;;;;;19.90;99.90;;;;;;5129337;27;19919;-77
2022/08/26 13:49:31;;;;;;;;;;;20.00;99.90;;;;;;5129318;27;19983;-81
2022/08/26 13:51:57;;;;;;;;;;;20.00;99.90;;;;;;5148060;27;19935;-81
2022/08/26 13:54:22;;;;;;;;;;;20.00;99.90;;;;;;5120461;27;20354;-81
2022/08/26 13:56:48;;;;;;;;;;;20.10;99.90;;;;;;5124579;27;19919;-79
2022/08/26 13:59:13;;;;;;;;;;;20.20;99.90;;;;;;5127551;27;19974;-87
2022/08/26 14:01:39;;;;;;;;;;;20.30;99.90;;;;;;5111937;27;19927;-85
2022/08/26 14:04:05;;;;;;;;;;;20.30;99.90;;;;;;5134582;27;20034;-84
2022/08/26 14:06:30;;;;;;;;;;;20.30;99.90;;;;;;5121060;27;20350;-83
2022/08/26 14:08:56;;;;;;;;;;;20.20;99.90;;;;;;5148159;27;19922;-84
2022/08/26 14:11:23;;;;;;;;;;;20.20;99.90;;;;;;5132346;27;19965;-84
2022/08/26 14:13:49;;;;;;;;;;;20.20;99.90;;;;;;5124093;27;20258;-84
2022/08/26 14:16:20;;;;;;;;;;;20.30;99.90;;;;;;5151953;27;19922;-85
2022/08/26 14:18:47;;;;;;;;;;;20.20;99.90;;;;;;5142905;27;19919;-83
2022/08/26 14:21:13;;;;;;;;;;;20.20;99.90;;;;;;5146993;27;19919;-85
2022/08/26 14:23:39;;;;;;;;;;;20.10;99.90;;;;;;5105293;27;20018;-80
2022/08/26 14:26:07;;;;;;;;;;;20.10;99.90;;;;;;5131580;27;19919;-80
2022/08/26 14:28:33;;;;;;;;;;;20.00;99.90;;;;;;5149118;27;19923;-81
2022/08/26 14:30:58;;;;;;;;;;;20.00;99.90;;;;;;5122725;27;19923;-81